DAL8976 SANT-SAZN
Flight info
| Callsign | DAL8976 |
|---|---|
| Flight time | 1h 45m |
| Altitude | 40000 |
| Route | SORTI3E SORTI UW3 CAT DCT SOLER DCT KOTOG KOTOG3Q |
| Aircraft | A359/H-SDE2E3GHIJ3J4J5LM1ORWXY/LB1D1 |
Departure
| Time | 2026-04-20 13:42 |
|---|---|
| Airport | Teniente Benjamín Matienzo International Airport (SANT) |
Arrival
| Time | 2026-04-20 15:28 |
|---|---|
| Airport | Presidente Perón International Airport (SAZN) |
| Time | Latitude | Longitude | Altitude | Speed | Heading |
|---|---|---|---|---|---|
| 2026-04-20 13:27 | -26.83538 | -65.10729 | 1474 ft | 0 kts | 281° |
| 2026-04-20 13:34 | -26.83539 | -65.10723 | 1472 ft | 2 kts | 285° |
| 2026-04-20 13:35 | -26.83546 | -65.10705 | 1472 ft | 3 kts | 322° |
| 2026-04-20 13:35 | -26.83563 | -65.10696 | 1472 ft | 3 kts | 343° |
| 2026-04-20 13:35 | -26.83579 | -65.10689 | 1471 ft | 1 kts | 319° |
| 2026-04-20 13:35 | -26.83583 | -65.10684 | 1471 ft | 0 kts | 318° |
| 2026-04-20 13:38 | -26.83562 | -65.10688 | 1479 ft | 5 kts | 355° |
| 2026-04-20 13:39 | -26.83477 | -65.10653 | 1477 ft | 14 kts | 40° |
| 2026-04-20 13:39 | -26.83412 | -65.10595 | 1480 ft | 11 kts | 36° |
| 2026-04-20 13:39 | -26.83352 | -65.10544 | 1476 ft | 12 kts | 39° |
| 2026-04-20 13:39 | -26.83266 | -65.10465 | 1477 ft | 22 kts | 39° |
| 2026-04-20 13:40 | -26.83156 | -65.10364 | 1483 ft | 19 kts | 38° |
| 2026-04-20 13:40 | -26.83052 | -65.10293 | 1497 ft | 16 kts | 20° |
| 2026-04-20 13:40 | -26.82953 | -65.10278 | 1499 ft | 13 kts | 1° |
| 2026-04-20 13:40 | -26.82868 | -65.10278 | 1500 ft | 11 kts | 0° |
| 2026-04-20 13:41 | -26.82828 | -65.10255 | 1500 ft | 3 kts | 78° |
| 2026-04-20 13:41 | -26.82843 | -65.10243 | 1500 ft | 3 kts | 159° |
| 2026-04-20 13:41 | -26.82847 | -65.10244 | 1500 ft | 1 kts | 181° |
| 2026-04-20 13:41 | -26.83135 | -65.10281 | 1496 ft | 89 kts | 190° |
| 2026-04-20 13:42 | -26.84050 | -65.10469 | 1514 ft | 174 kts | 191° |
| 2026-04-20 13:42 | -26.86888 | -65.11008 | 3191 ft | 222 kts | 197° |
| 2026-04-20 13:42 | -26.88411 | -65.11576 | 3605 ft | 241 kts | 199° |
| 2026-04-20 13:43 | -26.90055 | -65.12233 | 3966 ft | 256 kts | 199° |
| 2026-04-20 13:43 | -26.91755 | -65.12896 | 4607 ft | 261 kts | 199° |
| 2026-04-20 13:43 | -26.93493 | -65.13553 | 5245 ft | 264 kts | 198° |
| 2026-04-20 13:43 | -26.95260 | -65.14212 | 5835 ft | 270 kts | 197° |
| 2026-04-20 13:44 | -26.97060 | -65.14881 | 6404 ft | 275 kts | 198° |
| 2026-04-20 13:44 | -26.98871 | -65.15551 | 6970 ft | 278 kts | 198° |
| 2026-04-20 13:44 | -27.00719 | -65.16234 | 7562 ft | 281 kts | 198° |
| 2026-04-20 13:44 | -27.02580 | -65.16921 | 8163 ft | 283 kts | 198° |
| 2026-04-20 13:45 | -27.04440 | -65.17608 | 8759 ft | 286 kts | 199° |
| 2026-04-20 13:45 | -27.06343 | -65.18311 | 9361 ft | 289 kts | 199° |
| 2026-04-20 13:45 | -27.08268 | -65.19021 | 9976 ft | 292 kts | 199° |
| 2026-04-20 13:45 | -27.10228 | -65.19744 | 10358 ft | 303 kts | 199° |
| 2026-04-20 13:46 | -27.12274 | -65.20500 | 10621 ft | 317 kts | 199° |
| 2026-04-20 13:46 | -27.14423 | -65.21293 | 10850 ft | 332 kts | 199° |
| 2026-04-20 13:46 | -27.16647 | -65.22114 | 11203 ft | 340 kts | 199° |
| 2026-04-20 13:46 | -27.18881 | -65.22939 | 11637 ft | 343 kts | 200° |
| 2026-04-20 13:47 | -27.21160 | -65.23781 | 12148 ft | 346 kts | 200° |
| 2026-04-20 13:47 | -27.23447 | -65.24626 | 12660 ft | 348 kts | 200° |
| 2026-04-20 13:47 | -27.25761 | -65.25483 | 13102 ft | 352 kts | 200° |
| 2026-04-20 13:47 | -27.28092 | -65.26346 | 13583 ft | 353 kts | 200° |
| 2026-04-20 13:48 | -27.30435 | -65.27214 | 14011 ft | 355 kts | 200° |
| 2026-04-20 13:48 | -27.32789 | -65.28086 | 14411 ft | 357 kts | 200° |
| 2026-04-20 13:48 | -27.35156 | -65.28963 | 14815 ft | 359 kts | 200° |
| 2026-04-20 13:48 | -27.37539 | -65.29847 | 15231 ft | 361 kts | 201° |
| 2026-04-20 13:49 | -27.39936 | -65.30736 | 15636 ft | 364 kts | 201° |
| 2026-04-20 13:49 | -27.42349 | -65.31632 | 16074 ft | 366 kts | 201° |
| 2026-04-20 13:49 | -27.44768 | -65.32530 | 16526 ft | 367 kts | 201° |
| 2026-04-20 13:49 | -27.47207 | -65.33437 | 16961 ft | 370 kts | 201° |
| 2026-04-20 13:50 | -27.49655 | -65.34347 | 17394 ft | 371 kts | 201° |
| 2026-04-20 13:50 | -27.52108 | -65.35259 | 17809 ft | 373 kts | 201° |
| 2026-04-20 13:50 | -27.54584 | -65.36180 | 18204 ft | 375 kts | 201° |
| 2026-04-20 13:50 | -27.57076 | -65.37107 | 18579 ft | 377 kts | 201° |
| 2026-04-20 13:51 | -27.59579 | -65.38039 | 18969 ft | 380 kts | 201° |
| 2026-04-20 13:51 | -27.62062 | -65.38964 | 19339 ft | 382 kts | 201° |
| 2026-04-20 13:51 | -27.64597 | -65.39909 | 19695 ft | 385 kts | 201° |
| 2026-04-20 13:51 | -27.67151 | -65.40862 | 20031 ft | 387 kts | 201° |
| 2026-04-20 13:52 | -27.69714 | -65.41818 | 20366 ft | 389 kts | 202° |
| 2026-04-20 13:52 | -27.72289 | -65.42780 | 20702 ft | 391 kts | 202° |
| 2026-04-20 13:52 | -27.74886 | -65.43749 | 21039 ft | 393 kts | 202° |
| 2026-04-20 13:52 | -27.77499 | -65.44710 | 21369 ft | 396 kts | 201° |
| 2026-04-20 13:53 | -27.80128 | -65.45671 | 21703 ft | 398 kts | 201° |
| 2026-04-20 13:53 | -27.82775 | -65.46638 | 22021 ft | 400 kts | 202° |
| 2026-04-20 13:53 | -27.85439 | -65.47614 | 22298 ft | 404 kts | 202° |
| 2026-04-20 13:53 | -27.88085 | -65.48586 | 22624 ft | 406 kts | 202° |
| 2026-04-20 13:54 | -27.90778 | -65.49577 | 22959 ft | 408 kts | 202° |
| 2026-04-20 13:54 | -27.93482 | -65.50574 | 23273 ft | 410 kts | 202° |
| 2026-04-20 13:54 | -27.96205 | -65.51580 | 23575 ft | 412 kts | 202° |
| 2026-04-20 13:54 | -27.98933 | -65.52588 | 23850 ft | 414 kts | 202° |
| 2026-04-20 13:55 | -28.01685 | -65.53604 | 24123 ft | 416 kts | 202° |
| 2026-04-20 13:55 | -28.04447 | -65.54626 | 24388 ft | 418 kts | 202° |
| 2026-04-20 13:55 | -28.07224 | -65.55653 | 24655 ft | 420 kts | 202° |
| 2026-04-20 13:55 | -28.09970 | -65.56669 | 24919 ft | 421 kts | 202° |
| 2026-04-20 13:56 | -28.12769 | -65.57705 | 25178 ft | 424 kts | 202° |
| 2026-04-20 13:56 | -28.15584 | -65.58750 | 25442 ft | 426 kts | 202° |
| 2026-04-20 13:56 | -28.18407 | -65.59798 | 25721 ft | 428 kts | 202° |
| 2026-04-20 13:56 | -28.21238 | -65.60848 | 26005 ft | 429 kts | 202° |
| 2026-04-20 13:57 | -28.24085 | -65.61903 | 26311 ft | 432 kts | 202° |
| 2026-04-20 13:57 | -28.26948 | -65.62966 | 26598 ft | 434 kts | 202° |
| 2026-04-20 13:57 | -28.29823 | -65.64034 | 26896 ft | 435 kts | 202° |
| 2026-04-20 13:57 | -28.32710 | -65.65107 | 27224 ft | 437 kts | 202° |
| 2026-04-20 13:58 | -28.35607 | -65.66184 | 27544 ft | 439 kts | 202° |
| 2026-04-20 13:58 | -28.38518 | -65.67268 | 27862 ft | 441 kts | 203° |
| 2026-04-20 13:58 | -28.41446 | -65.68359 | 28198 ft | 444 kts | 203° |
| 2026-04-20 13:58 | -28.44399 | -65.69460 | 28505 ft | 447 kts | 203° |
| 2026-04-20 13:59 | -28.47363 | -65.70565 | 28842 ft | 449 kts | 203° |
| 2026-04-20 13:59 | -28.50337 | -65.71675 | 29200 ft | 451 kts | 203° |
| 2026-04-20 13:59 | -28.52318 | -65.72414 | 29424 ft | 453 kts | 203° |
| 2026-04-20 13:59 | -28.56300 | -65.73899 | 29883 ft | 456 kts | 203° |
| 2026-04-20 14:00 | -28.58375 | -65.74555 | 30116 ft | 461 kts | 198° |
| 2026-04-20 14:00 | -28.62558 | -65.75555 | 30516 ft | 465 kts | 197° |
| 2026-04-20 14:00 | -28.65754 | -65.76256 | 30853 ft | 468 kts | 196° |
| 2026-04-20 14:00 | -28.67873 | -65.76704 | 31077 ft | 469 kts | 196° |
| 2026-04-20 14:01 | -28.71094 | -65.77375 | 31400 ft | 471 kts | 196° |
| 2026-04-20 14:01 | -28.74327 | -65.78045 | 31696 ft | 474 kts | 196° |
| 2026-04-20 14:01 | -28.77585 | -65.78721 | 31996 ft | 476 kts | 196° |
| 2026-04-20 14:01 | -28.80843 | -65.79400 | 32311 ft | 478 kts | 196° |
| 2026-04-20 14:02 | -28.84124 | -65.80088 | 32581 ft | 480 kts | 196° |
| 2026-04-20 14:02 | -28.87412 | -65.80779 | 32899 ft | 482 kts | 196° |
| 2026-04-20 14:02 | -28.90715 | -65.81476 | 33198 ft | 484 kts | 196° |
| 2026-04-20 14:02 | -28.94038 | -65.82178 | 33514 ft | 486 kts | 196° |
| 2026-04-20 14:03 | -28.97365 | -65.82881 | 33786 ft | 488 kts | 196° |
| 2026-04-20 14:03 | -29.00714 | -65.83589 | 34059 ft | 490 kts | 196° |
| 2026-04-20 14:03 | -29.04069 | -65.84299 | 34296 ft | 492 kts | 196° |
| 2026-04-20 14:03 | -29.07442 | -65.85013 | 34524 ft | 494 kts | 196° |
| 2026-04-20 14:04 | -29.10824 | -65.85729 | 34811 ft | 494 kts | 197° |
| 2026-04-20 14:04 | -29.14199 | -65.86442 | 35173 ft | 492 kts | 197° |
| 2026-04-20 14:04 | -29.17560 | -65.87153 | 35540 ft | 491 kts | 197° |
| 2026-04-20 14:04 | -29.20925 | -65.87865 | 35856 ft | 490 kts | 197° |
| 2026-04-20 14:05 | -29.24232 | -65.88567 | 36211 ft | 490 kts | 197° |
| 2026-04-20 14:05 | -29.27579 | -65.89279 | 36515 ft | 490 kts | 197° |
| 2026-04-20 14:05 | -29.30931 | -65.89992 | 36846 ft | 489 kts | 197° |
| 2026-04-20 14:05 | -29.34276 | -65.90704 | 37183 ft | 488 kts | 197° |
| 2026-04-20 14:06 | -29.37614 | -65.91414 | 37554 ft | 487 kts | 198° |
| 2026-04-20 14:06 | -29.40944 | -65.92123 | 37888 ft | 486 kts | 198° |
| 2026-04-20 14:06 | -29.44269 | -65.92832 | 38235 ft | 485 kts | 198° |
| 2026-04-20 14:06 | -29.47583 | -65.93540 | 38559 ft | 485 kts | 198° |
| 2026-04-20 14:07 | -29.50900 | -65.94249 | 38813 ft | 485 kts | 198° |
| 2026-04-20 14:07 | -29.54223 | -65.94960 | 39049 ft | 486 kts | 198° |
| 2026-04-20 14:07 | -29.57555 | -65.95673 | 39252 ft | 486 kts | 198° |
| 2026-04-20 14:07 | -29.60877 | -65.96384 | 39510 ft | 486 kts | 198° |
| 2026-04-20 14:08 | -29.64203 | -65.97095 | 39769 ft | 485 kts | 198° |
| 2026-04-20 14:08 | -29.67519 | -65.97805 | 39977 ft | 485 kts | 198° |
| 2026-04-20 14:08 | -29.74123 | -65.99221 | 40041 ft | 485 kts | 198° |
| 2026-04-20 14:09 | -29.80765 | -66.00648 | 40062 ft | 485 kts | 198° |
| 2026-04-20 14:09 | -29.87417 | -66.02078 | 40051 ft | 486 kts | 198° |
| 2026-04-20 14:10 | -29.94070 | -66.03511 | 40033 ft | 486 kts | 198° |
| 2026-04-20 14:10 | -30.00679 | -66.04935 | 40042 ft | 486 kts | 198° |
| 2026-04-20 14:11 | -30.07331 | -66.06371 | 40054 ft | 486 kts | 198° |
| 2026-04-20 14:11 | -30.13982 | -66.07809 | 40044 ft | 486 kts | 198° |
| 2026-04-20 14:12 | -30.20633 | -66.09248 | 40044 ft | 486 kts | 198° |
| 2026-04-20 14:12 | -30.27292 | -66.10692 | 40045 ft | 486 kts | 198° |
| 2026-04-20 14:13 | -30.33939 | -66.12135 | 40080 ft | 486 kts | 199° |
| 2026-04-20 14:13 | -30.40602 | -66.13583 | 40046 ft | 487 kts | 199° |
| 2026-04-20 14:14 | -30.47221 | -66.15025 | 40051 ft | 487 kts | 199° |
| 2026-04-20 14:14 | -30.53896 | -66.16479 | 40051 ft | 487 kts | 199° |
| 2026-04-20 14:15 | -30.60568 | -66.17935 | 40054 ft | 487 kts | 199° |
| 2026-04-20 14:15 | -30.67243 | -66.19394 | 40053 ft | 488 kts | 199° |
| 2026-04-20 14:16 | -30.73927 | -66.20858 | 40053 ft | 489 kts | 199° |
| 2026-04-20 14:16 | -30.80572 | -66.22314 | 40062 ft | 489 kts | 199° |
| 2026-04-20 14:17 | -30.87254 | -66.23780 | 40058 ft | 488 kts | 199° |
| 2026-04-20 14:17 | -30.93937 | -66.25249 | 40082 ft | 489 kts | 199° |
| 2026-04-20 14:18 | -31.00621 | -66.26721 | 40075 ft | 489 kts | 199° |
| 2026-04-20 14:18 | -31.07320 | -66.28197 | 40075 ft | 489 kts | 199° |
| 2026-04-20 14:19 | -31.13954 | -66.29662 | 40082 ft | 488 kts | 199° |
| 2026-04-20 14:19 | -31.20636 | -66.31139 | 40098 ft | 490 kts | 199° |
| 2026-04-20 14:20 | -31.27338 | -66.32624 | 40100 ft | 490 kts | 199° |
| 2026-04-20 14:20 | -31.34039 | -66.34109 | 40090 ft | 490 kts | 199° |
| 2026-04-20 14:21 | -31.40741 | -66.35597 | 40090 ft | 490 kts | 199° |
| 2026-04-20 14:21 | -31.47447 | -66.37088 | 40100 ft | 490 kts | 199° |
| 2026-04-20 14:22 | -31.54158 | -66.38582 | 40107 ft | 491 kts | 199° |
| 2026-04-20 14:22 | -31.60827 | -66.40069 | 40108 ft | 491 kts | 199° |
| 2026-04-20 14:23 | -31.67538 | -66.41568 | 40104 ft | 491 kts | 199° |
| 2026-04-20 14:23 | -31.74261 | -66.43071 | 40106 ft | 491 kts | 199° |
| 2026-04-20 14:24 | -31.80973 | -66.44575 | 40102 ft | 491 kts | 199° |
| 2026-04-20 14:24 | -31.87642 | -66.46071 | 40103 ft | 491 kts | 199° |
| 2026-04-20 14:25 | -31.94361 | -66.47580 | 40141 ft | 491 kts | 199° |
| 2026-04-20 14:25 | -32.01081 | -66.49093 | 40109 ft | 492 kts | 200° |
| 2026-04-20 14:26 | -32.07806 | -66.50609 | 40098 ft | 492 kts | 200° |
| 2026-04-20 14:26 | -32.14528 | -66.52168 | 40104 ft | 491 kts | 201° |
| 2026-04-20 14:27 | -32.21181 | -66.53813 | 40135 ft | 491 kts | 201° |
| 2026-04-20 14:27 | -32.27882 | -66.55462 | 40105 ft | 493 kts | 200° |
| 2026-04-20 14:28 | -32.34603 | -66.57109 | 40105 ft | 493 kts | 200° |
| 2026-04-20 14:28 | -32.41332 | -66.58759 | 40103 ft | 494 kts | 200° |
| 2026-04-20 14:29 | -32.48071 | -66.60413 | 40128 ft | 495 kts | 200° |
| 2026-04-20 14:29 | -32.54823 | -66.62073 | 40104 ft | 496 kts | 200° |
| 2026-04-20 14:30 | -32.61581 | -66.63737 | 40116 ft | 496 kts | 200° |
| 2026-04-20 14:30 | -32.68344 | -66.65404 | 40117 ft | 496 kts | 200° |
| 2026-04-20 14:31 | -32.75061 | -66.67063 | 40139 ft | 496 kts | 200° |
| 2026-04-20 14:31 | -32.81857 | -66.68744 | 40121 ft | 498 kts | 200° |
| 2026-04-20 14:32 | -32.88638 | -66.70424 | 40124 ft | 498 kts | 200° |
| 2026-04-20 14:32 | -32.95422 | -66.72106 | 40125 ft | 498 kts | 200° |
| 2026-04-20 14:33 | -33.02169 | -66.73783 | 40135 ft | 498 kts | 200° |
| 2026-04-20 14:33 | -33.08967 | -66.75476 | 40128 ft | 499 kts | 200° |
| 2026-04-20 14:34 | -33.15778 | -66.77173 | 40139 ft | 500 kts | 200° |
| 2026-04-20 14:34 | -33.22576 | -66.78870 | 40140 ft | 499 kts | 200° |
| 2026-04-20 14:35 | -33.29388 | -66.80574 | 40145 ft | 500 kts | 200° |
| 2026-04-20 14:35 | -33.36206 | -66.82282 | 40149 ft | 501 kts | 200° |
| 2026-04-20 14:36 | -33.43036 | -66.83995 | 40153 ft | 501 kts | 200° |
| 2026-04-20 14:36 | -33.49865 | -66.85711 | 40153 ft | 501 kts | 200° |
| 2026-04-20 14:37 | -33.56707 | -66.87433 | 40150 ft | 502 kts | 200° |
| 2026-04-20 14:37 | -33.63501 | -66.89146 | 40151 ft | 502 kts | 200° |
| 2026-04-20 14:38 | -33.70349 | -66.90876 | 40152 ft | 502 kts | 200° |
| 2026-04-20 14:38 | -33.77160 | -66.92598 | 40180 ft | 502 kts | 200° |
| 2026-04-20 14:39 | -33.84004 | -66.94331 | 40155 ft | 503 kts | 200° |
| 2026-04-20 14:39 | -33.90859 | -66.96071 | 40152 ft | 503 kts | 200° |
| 2026-04-20 14:40 | -33.97720 | -66.97814 | 40152 ft | 503 kts | 200° |
| 2026-04-20 14:40 | -34.04577 | -66.99560 | 40164 ft | 503 kts | 200° |
| 2026-04-20 14:41 | -34.11436 | -67.01309 | 40159 ft | 504 kts | 200° |
| 2026-04-20 14:41 | -34.18266 | -67.03054 | 40162 ft | 504 kts | 200° |
| 2026-04-20 14:42 | -34.25130 | -67.04809 | 40161 ft | 504 kts | 200° |
| 2026-04-20 14:42 | -34.32011 | -67.06573 | 40161 ft | 504 kts | 200° |
| 2026-04-20 14:43 | -34.38873 | -67.08334 | 40168 ft | 504 kts | 200° |
| 2026-04-20 14:43 | -34.45743 | -67.10101 | 40167 ft | 504 kts | 200° |
| 2026-04-20 14:44 | -34.52611 | -67.11870 | 40199 ft | 504 kts | 200° |
| 2026-04-20 14:44 | -34.59438 | -67.13631 | 40169 ft | 505 kts | 200° |
| 2026-04-20 14:45 | -34.66310 | -67.15408 | 40171 ft | 505 kts | 200° |
| 2026-04-20 14:45 | -34.73195 | -67.17190 | 40170 ft | 505 kts | 200° |
| 2026-04-20 14:46 | -34.80076 | -67.18974 | 40181 ft | 505 kts | 200° |
| 2026-04-20 14:46 | -34.86975 | -67.20767 | 40172 ft | 507 kts | 200° |
| 2026-04-20 14:47 | -34.93872 | -67.22563 | 40180 ft | 507 kts | 199° |
| 2026-04-20 14:48 | -35.04205 | -67.25256 | 40191 ft | 508 kts | 199° |
| 2026-04-20 14:48 | -35.11128 | -67.27065 | 40176 ft | 510 kts | 199° |
| 2026-04-20 14:49 | -35.16898 | -67.28575 | 40182 ft | 510 kts | 199° |
| 2026-04-20 14:49 | -35.23844 | -67.30396 | 40180 ft | 510 kts | 199° |
| 2026-04-20 14:50 | -35.30786 | -67.32219 | 40184 ft | 510 kts | 199° |
| 2026-04-20 14:50 | -35.37733 | -67.34047 | 40179 ft | 511 kts | 199° |
| 2026-04-20 14:51 | -35.44702 | -67.35883 | 40180 ft | 511 kts | 199° |
| 2026-04-20 14:51 | -35.51660 | -67.37720 | 40177 ft | 511 kts | 199° |
| 2026-04-20 14:52 | -35.58588 | -67.39553 | 40182 ft | 513 kts | 199° |
| 2026-04-20 14:52 | -35.65572 | -67.41404 | 40186 ft | 514 kts | 199° |
| 2026-04-20 14:53 | -35.72566 | -67.43260 | 40191 ft | 514 kts | 199° |
| 2026-04-20 14:53 | -35.79557 | -67.45119 | 40200 ft | 514 kts | 199° |
| 2026-04-20 14:54 | -35.86562 | -67.46985 | 40198 ft | 515 kts | 199° |
| 2026-04-20 14:54 | -35.93529 | -67.48844 | 40194 ft | 515 kts | 199° |
| 2026-04-20 14:55 | -36.00544 | -67.50719 | 40195 ft | 515 kts | 199° |
| 2026-04-20 14:55 | -36.07541 | -67.52594 | 40198 ft | 516 kts | 198° |
| 2026-04-20 14:56 | -36.14563 | -67.54478 | 40223 ft | 516 kts | 198° |
| 2026-04-20 14:56 | -36.21588 | -67.56367 | 40204 ft | 516 kts | 198° |
| 2026-04-20 14:57 | -36.28607 | -67.58257 | 40207 ft | 515 kts | 198° |
| 2026-04-20 14:57 | -36.35610 | -67.60146 | 40205 ft | 515 kts | 198° |
| 2026-04-20 14:58 | -36.42611 | -67.62038 | 40206 ft | 515 kts | 198° |
| 2026-04-20 14:58 | -36.49611 | -67.63934 | 40208 ft | 515 kts | 198° |
| 2026-04-20 14:59 | -36.56609 | -67.65833 | 40209 ft | 515 kts | 198° |
| 2026-04-20 14:59 | -36.63565 | -67.67723 | 40206 ft | 515 kts | 198° |
| 2026-04-20 15:00 | -36.70580 | -67.69633 | 40212 ft | 515 kts | 198° |
| 2026-04-20 15:00 | -36.77557 | -67.71535 | 39892 ft | 510 kts | 198° |
| 2026-04-20 15:00 | -36.81044 | -67.72489 | 39037 ft | 516 kts | 198° |
| 2026-04-20 15:01 | -36.84583 | -67.73461 | 38017 ft | 523 kts | 198° |
| 2026-04-20 15:01 | -36.88146 | -67.74435 | 37286 ft | 523 kts | 198° |
| 2026-04-20 15:01 | -36.91653 | -67.75393 | 36617 ft | 522 kts | 198° |
| 2026-04-20 15:01 | -36.95238 | -67.76375 | 35893 ft | 521 kts | 198° |
| 2026-04-20 15:02 | -36.98777 | -67.77345 | 35274 ft | 519 kts | 198° |
| 2026-04-20 15:02 | -37.02287 | -67.78307 | 34756 ft | 514 kts | 198° |
| 2026-04-20 15:02 | -37.05711 | -67.79247 | 34235 ft | 510 kts | 198° |
| 2026-04-20 15:02 | -37.09215 | -67.80210 | 33620 ft | 505 kts | 199° |
| 2026-04-20 15:03 | -37.12582 | -67.81136 | 33087 ft | 499 kts | 199° |
| 2026-04-20 15:03 | -37.16002 | -67.82078 | 32581 ft | 494 kts | 199° |
| 2026-04-20 15:03 | -37.19301 | -67.82988 | 32057 ft | 489 kts | 199° |
| 2026-04-20 15:03 | -37.22610 | -67.83902 | 31565 ft | 485 kts | 200° |
| 2026-04-20 15:04 | -37.25895 | -67.84811 | 31042 ft | 481 kts | 200° |
| 2026-04-20 15:04 | -37.29145 | -67.85711 | 30548 ft | 477 kts | 200° |
| 2026-04-20 15:04 | -37.32377 | -67.86606 | 29992 ft | 473 kts | 201° |
| 2026-04-20 15:04 | -37.35577 | -67.87494 | 29479 ft | 468 kts | 200° |
| 2026-04-20 15:05 | -37.38730 | -67.88369 | 28976 ft | 463 kts | 200° |
| 2026-04-20 15:05 | -37.41872 | -67.89242 | 28482 ft | 457 kts | 200° |
| 2026-04-20 15:05 | -37.44959 | -67.90101 | 27979 ft | 453 kts | 200° |
| 2026-04-20 15:05 | -37.48020 | -67.90953 | 27506 ft | 448 kts | 200° |
| 2026-04-20 15:06 | -37.51042 | -67.91796 | 27007 ft | 444 kts | 200° |
| 2026-04-20 15:06 | -37.54061 | -67.92638 | 26521 ft | 440 kts | 200° |
| 2026-04-20 15:06 | -37.57037 | -67.93469 | 26033 ft | 437 kts | 199° |
| 2026-04-20 15:06 | -37.60000 | -67.94296 | 25541 ft | 434 kts | 199° |
| 2026-04-20 15:07 | -37.62945 | -67.95120 | 25048 ft | 431 kts | 199° |
| 2026-04-20 15:07 | -37.65863 | -67.95937 | 24554 ft | 429 kts | 199° |
| 2026-04-20 15:07 | -37.68768 | -67.96750 | 24080 ft | 427 kts | 199° |
| 2026-04-20 15:07 | -37.71620 | -67.97551 | 23540 ft | 425 kts | 198° |
| 2026-04-20 15:08 | -37.74505 | -67.98360 | 23016 ft | 422 kts | 198° |
| 2026-04-20 15:08 | -37.77363 | -67.99160 | 22521 ft | 418 kts | 198° |
| 2026-04-20 15:08 | -37.80192 | -67.99954 | 22031 ft | 415 kts | 198° |
| 2026-04-20 15:08 | -37.83002 | -68.00743 | 21542 ft | 412 kts | 198° |
| 2026-04-20 15:09 | -37.85798 | -68.01529 | 21049 ft | 410 kts | 197° |
| 2026-04-20 15:09 | -37.88573 | -68.02310 | 20560 ft | 407 kts | 197° |
| 2026-04-20 15:09 | -37.91327 | -68.03086 | 20094 ft | 404 kts | 197° |
| 2026-04-20 15:09 | -37.94037 | -68.03849 | 19609 ft | 402 kts | 198° |
| 2026-04-20 15:10 | -37.96753 | -68.04615 | 19131 ft | 400 kts | 198° |
| 2026-04-20 15:10 | -37.99474 | -68.05383 | 18650 ft | 399 kts | 198° |
| 2026-04-20 15:10 | -38.02182 | -68.06148 | 18129 ft | 396 kts | 197° |
| 2026-04-20 15:10 | -38.04852 | -68.06903 | 17642 ft | 391 kts | 197° |
| 2026-04-20 15:11 | -38.07495 | -68.07650 | 17163 ft | 386 kts | 197° |
| 2026-04-20 15:11 | -38.10098 | -68.08387 | 16698 ft | 381 kts | 197° |
| 2026-04-20 15:11 | -38.12664 | -68.09114 | 16245 ft | 376 kts | 197° |
| 2026-04-20 15:11 | -38.15202 | -68.09834 | 15786 ft | 371 kts | 196° |
| 2026-04-20 15:12 | -38.17702 | -68.10544 | 15325 ft | 366 kts | 195° |
| 2026-04-20 15:12 | -38.20157 | -68.11241 | 15071 ft | 354 kts | 195° |
| 2026-04-20 15:12 | -38.22480 | -68.11898 | 14790 ft | 331 kts | 195° |
| 2026-04-20 15:12 | -38.24681 | -68.12523 | 14306 ft | 321 kts | 194° |
| 2026-04-20 15:13 | -38.26841 | -68.13140 | 13999 ft | 315 kts | 194° |
| 2026-04-20 15:13 | -38.28908 | -68.13729 | 13374 ft | 305 kts | 194° |
| 2026-04-20 15:13 | -38.31007 | -68.14328 | 12905 ft | 306 kts | 194° |
| 2026-04-20 15:13 | -38.33048 | -68.14911 | 12488 ft | 303 kts | 194° |
| 2026-04-20 15:14 | -38.35097 | -68.15495 | 12109 ft | 300 kts | 194° |
| 2026-04-20 15:14 | -38.37125 | -68.16074 | 11727 ft | 298 kts | 194° |
| 2026-04-20 15:14 | -38.39143 | -68.16651 | 11348 ft | 296 kts | 193° |
| 2026-04-20 15:14 | -38.41150 | -68.17224 | 10967 ft | 295 kts | 193° |
| 2026-04-20 15:15 | -38.43152 | -68.17774 | 10590 ft | 294 kts | 191° |
| 2026-04-20 15:15 | -38.45182 | -68.17850 | 10417 ft | 294 kts | 172° |
| 2026-04-20 15:15 | -38.47117 | -68.17057 | 10293 ft | 292 kts | 155° |
| 2026-04-20 15:15 | -38.48937 | -68.15895 | 10070 ft | 292 kts | 152° |
| 2026-04-20 15:16 | -38.50733 | -68.14696 | 9685 ft | 290 kts | 152° |
| 2026-04-20 15:16 | -38.52518 | -68.13507 | 9339 ft | 288 kts | 152° |
| 2026-04-20 15:16 | -38.54293 | -68.12331 | 9019 ft | 287 kts | 152° |
| 2026-04-20 15:16 | -38.56061 | -68.11164 | 8688 ft | 285 kts | 152° |
| 2026-04-20 15:17 | -38.57820 | -68.10005 | 8374 ft | 284 kts | 152° |
| 2026-04-20 15:17 | -38.59570 | -68.08853 | 8044 ft | 281 kts | 152° |
| 2026-04-20 15:17 | -38.61298 | -68.07715 | 7715 ft | 278 kts | 152° |
| 2026-04-20 15:17 | -38.63012 | -68.06587 | 7390 ft | 276 kts | 152° |
| 2026-04-20 15:18 | -38.64703 | -68.05473 | 7138 ft | 269 kts | 152° |
| 2026-04-20 15:18 | -38.66338 | -68.04396 | 6892 ft | 261 kts | 152° |
| 2026-04-20 15:18 | -38.67946 | -68.03336 | 6557 ft | 259 kts | 152° |
| 2026-04-20 15:18 | -38.69540 | -68.02286 | 6211 ft | 255 kts | 152° |
| 2026-04-20 15:19 | -38.71071 | -68.01282 | 6077 ft | 246 kts | 152° |
| 2026-04-20 15:19 | -38.72557 | -68.00299 | 5992 ft | 237 kts | 151° |
| 2026-04-20 15:19 | -38.74020 | -67.99330 | 5896 ft | 236 kts | 151° |
| 2026-04-20 15:19 | -38.75475 | -67.98366 | 5797 ft | 236 kts | 151° |
| 2026-04-20 15:20 | -38.76932 | -67.97401 | 5708 ft | 235 kts | 151° |
| 2026-04-20 15:20 | -38.78388 | -67.96437 | 5623 ft | 235 kts | 152° |
| 2026-04-20 15:20 | -38.79838 | -67.95478 | 5519 ft | 233 kts | 152° |
| 2026-04-20 15:20 | -38.81263 | -67.94534 | 5427 ft | 227 kts | 152° |
| 2026-04-20 15:21 | -38.82607 | -67.93645 | 5325 ft | 217 kts | 152° |
| 2026-04-20 15:21 | -38.83924 | -67.92785 | 5238 ft | 213 kts | 153° |
| 2026-04-20 15:21 | -38.85345 | -67.92238 | 5212 ft | 215 kts | 172° |
| 2026-04-20 15:21 | -38.86805 | -67.92152 | 5128 ft | 204 kts | 179° |
| 2026-04-20 15:22 | -38.88202 | -67.92165 | 4957 ft | 198 kts | 179° |
| 2026-04-20 15:22 | -38.89570 | -67.92181 | 4719 ft | 194 kts | 179° |
| 2026-04-20 15:22 | -38.90924 | -67.92193 | 4629 ft | 195 kts | 179° |
| 2026-04-20 15:22 | -38.92260 | -67.92202 | 4543 ft | 187 kts | 179° |
| 2026-04-20 15:23 | -38.93535 | -67.92441 | 4280 ft | 185 kts | 199° |
| 2026-04-20 15:23 | -38.94566 | -67.93435 | 4182 ft | 191 kts | 233° |
| 2026-04-20 15:23 | -38.94985 | -67.94995 | 4046 ft | 179 kts | 265° |
| 2026-04-20 15:23 | -38.95015 | -67.96548 | 3855 ft | 171 kts | 271° |
| 2026-04-20 15:24 | -38.94992 | -67.98009 | 3636 ft | 158 kts | 271° |
| 2026-04-20 15:24 | -38.94971 | -67.99406 | 3364 ft | 153 kts | 271° |
| 2026-04-20 15:24 | -38.94957 | -68.00747 | 3119 ft | 146 kts | 271° |
| 2026-04-20 15:24 | -38.94949 | -68.02004 | 2948 ft | 136 kts | 270° |
| 2026-04-20 15:25 | -38.94944 | -68.03195 | 2730 ft | 131 kts | 270° |
| 2026-04-20 15:25 | -38.94941 | -68.04350 | 2607 ft | 128 kts | 270° |
| 2026-04-20 15:25 | -38.94936 | -68.05498 | 2601 ft | 129 kts | 270° |
| 2026-04-20 15:25 | -38.94930 | -68.06681 | 2423 ft | 136 kts | 270° |
| 2026-04-20 15:26 | -38.94935 | -68.07892 | 2143 ft | 134 kts | 269° |
| 2026-04-20 15:26 | -38.94933 | -68.09099 | 1819 ft | 135 kts | 270° |
| 2026-04-20 15:26 | -38.94925 | -68.10293 | 1561 ft | 132 kts | 270° |
| 2026-04-20 15:26 | -38.94917 | -68.11465 | 1293 ft | 131 kts | 270° |
| 2026-04-20 15:27 | -38.94911 | -68.12625 | 1083 ft | 129 kts | 270° |
| 2026-04-20 15:27 | -38.94912 | -68.13788 | 946 ft | 131 kts | 270° |
| 2026-04-20 15:27 | -38.94911 | -68.14920 | 902 ft | 120 kts | 275° |
| 2026-04-20 15:27 | -38.94899 | -68.15845 | 907 ft | 84 kts | 270° |
| 2026-04-20 15:28 | -38.94894 | -68.16437 | 906 ft | 46 kts | 270° |
| 2026-04-20 15:28 | -38.94902 | -68.16814 | 905 ft | 37 kts | 261° |
| 2026-04-20 15:28 | -38.94930 | -68.17010 | 907 ft | 11 kts | 297° |
| 2026-04-20 15:28 | -38.94899 | -68.16990 | 907 ft | 11 kts | 77° |
| 2026-04-20 15:29 | -38.94895 | -68.16764 | 904 ft | 31 kts | 89° |
| 2026-04-20 15:29 | -38.94895 | -68.16488 | 906 ft | 31 kts | 90° |
| 2026-04-20 15:29 | -38.94897 | -68.16204 | 906 ft | 32 kts | 90° |
| 2026-04-20 15:29 | -38.94897 | -68.15913 | 908 ft | 33 kts | 90° |
| 2026-04-20 15:30 | -38.94897 | -68.15608 | 906 ft | 35 kts | 90° |
| 2026-04-20 15:30 | -38.94897 | -68.15295 | 902 ft | 32 kts | 91° |
| 2026-04-20 15:30 | -38.94943 | -68.15085 | 901 ft | 25 kts | 130° |
| 2026-04-20 15:30 | -38.95063 | -68.14923 | 902 ft | 26 kts | 127° |
| 2026-04-20 15:31 | -38.95092 | -68.14693 | 902 ft | 27 kts | 91° |
| 2026-04-20 15:31 | -38.95092 | -68.14449 | 901 ft | 24 kts | 90° |
| 2026-04-20 15:31 | -38.95091 | -68.14248 | 901 ft | 21 kts | 89° |
| 2026-04-20 15:31 | -38.95100 | -68.14118 | 900 ft | 9 kts | 123° |
| 2026-04-20 15:32 | -38.95137 | -68.14097 | 900 ft | 0 kts | 175° |